Bettina K — PBEW — position and weather

sailwx.info

Track history (hours):
 
Tides and Currents Weather Stations Pressure Air Temp Water Temp Dewpoint Dewpoint Depression Visibility Wind Speed Wind Dir Waves Ship Positions

Bettina K

Last reported at 2017-May-24 20:46 UTC. Time now 2017-May-24 23:40 UTC.
Position N 53°38' W 000°08'.

Length 82 m; draft 3.2 m.

Type: Cargo ship. MMSI: 244730469.

Date/timePositionNaut miles runAvg speedWind from/ knotsBaromVisibWave heightAir tempDewpointWater temp
2017-May-24 20:46N 53°38' W 000°08'312.0
2017-May-24 20:30N 53°40' W 000°12'611.3
2017-May-24 20:00N 53°43' W 000°19'5 0.1
2017-May-23 02:36N 53°42' W 000°27'110.8
2017-May-23 02:30N 53°42' W 000°25'5 9.6
2017-May-23 02:01N 53°44' W 000°17'4 7.9
2017-May-23 01:30N 53°41' W 000°13'5 9.1
2017-May-23 01:00N 53°38' W 000°07'510.5
2017-May-23 00:30N 53°35' E 000°01'  
2017-May-19 09:55N 57°25' E 009°13'3 7.5
2017-May-19 09:30N 57°27' E 009°18'8 7.4
2017-May-19 08:28N 57°31' E 009°30'6 7.2
2017-May-19 07:41N 57°34' E 009°39'2 6.9
2017-May-19 07:25N 57°35' E 009°42'3 6.8
2017-May-19 07:00N 57°37' E 009°46'4 6.8
2017-May-19 06:27N 57°39' E 009°52'3 6.5
2017-May-19 06:00N 57°40' E 009°57'3 6.6
2017-May-19 05:30N 57°41' E 010°03'3 6.5
2017-May-19 04:59N 57°43' E 010°08'5 6.4
2017-May-19 04:11N 57°45' E 010°16'2 6.5
2017-May-19 03:50N 57°46' E 010°20'2 6.5
2017-May-19 03:30N 57°47' E 010°24'3 6.7
2017-May-19 03:00N 57°49' E 010°30'4 6.6
2017-May-19 02:26N 57°48' E 010°37'3 6.7
2017-May-19 01:57N 57°49' E 010°43'3 6.3
2017-May-19 01:29N 57°48' E 010°48'3 6.4
2017-May-19 01:00N 57°47' E 010°53'3 7.1
2017-May-19 00:31N 57°45' E 010°58'4 7.4
2017-May-18 23:58N 57°42' E 011°04'4 7.2
2017-May-18 23:29N 57°40' E 011°09'4 7.9
2017-May-18 23:00N 57°36' E 011°11'4 7.8
2017-May-18 22:30N 57°33' E 011°16'4 7.8
2017-May-18 22:00N 57°31' E 011°21'4 7.7
2017-May-18 21:30N 57°28' E 011°26'4 7.6
2017-May-18 21:00N 57°24' E 011°29'4 7.8
2017-May-18 20:30N 57°21' E 011°31'4 8.4
2017-May-18 19:59N 57°17' E 011°34'510.2
2017-May-18 19:29N 57°12' E 011°38'510.3
2017-May-18 19:00N 57°07' E 011°41'5 9.5
2017-May-18 18:30N 57°03' E 011°44'53 7.9
2017-May-18 11:43N 56°13' E 012°19'2 8.2
2017-May-18 11:29N 56°12' E 012°22'4 8.6
2017-May-18 11:00N 56°10' E 012°28'4 9.0
2017-May-18 10:31N 56°07' E 012°34'5 9.6
2017-May-18 10:00N 56°03' E 012°40'5 9.4
2017-May-18 09:30N 55°59' E 012°42'5 9.2
2017-May-18 09:01N 55°54' E 012°45'5 9.3
2017-May-18 08:31N 55°50' E 012°44'5 9.5
2017-May-18 08:01N 55°45' E 012°42'5 9.4
2017-May-18 07:31N 55°40' E 012°41'5 9.9
2017-May-18 07:00N 55°35' E 012°42'5 9.2
2017-May-18 06:30N 55°31' E 012°43'4 8.6
2017-May-18 06:01N 55°27' E 012°42'4 7.2
2017-May-18 05:30N 55°23' E 012°42'4 7.2
2017-May-18 05:00N 55°19' E 012°41'3 6.6
2017-May-18 04:30N 55°17' E 012°46'3 7.2
2017-May-18 04:01N 55°16' E 012°52'4 7.2
2017-May-18 03:30N 55°15' E 012°58'4 7.1
2017-May-18 03:00N 55°15' E 013°04'3 6.9
2017-May-18 02:30N 55°15' E 013°10'4 7.0
2017-May-18 02:00N 55°15' E 013°17'3 7.0
2017-May-18 01:31N 55°15' E 013°23'4 7.0
2017-May-18 01:01N 55°15' E 013°29'4 7.0
2017-May-18 00:30N 55°15' E 013°35'4 7.1
2017-May-18 00:00N 55°14' E 013°41'4 7.3
2017-May-17 23:30N 55°14' E 013°48'4 7.1
2017-May-17 23:00N 55°14' E 013°54'4 7.1
2017-May-17 22:30N 55°14' E 014°00'4 7.1
2017-May-17 22:00N 55°14' E 014°06'4 7.7
2017-May-17 21:30N 55°14' E 014°13'3 6.7
2017-May-17 21:00N 55°15' E 014°18'4 6.9
2017-May-17 20:29N 55°18' E 014°23'3 7.1
2017-May-17 20:00N 55°21' E 014°27'4 7.7
2017-May-17 19:30N 55°23' E 014°31'4 8.2
2017-May-17 19:00N 55°26' E 014°36'4 7.9
2017-May-17 18:29N 55°29' E 014°42'4 7.7
2017-May-17 18:00N 55°30' E 014°48'4 7.5
2017-May-17 17:30N 55°32' E 014°54'4 7.5
2017-May-17 16:58N 55°34' E 015°00'3 7.4
2017-May-17 16:31N 55°36' E 015°05'4 7.5
2017-May-17 16:00N 55°38' E 015°11'4 7.7
2017-May-17 15:31N 55°40' E 015°17'4 7.6
2017-May-17 15:00N 55°42' E 015°22'8 7.7
2017-May-17 14:01N 55°46' E 015°34'4 7.6
2017-May-17 13:31N 55°48' E 015°40'4 7.4
2017-May-17 13:00N 55°50' E 015°46'4 7.2
2017-May-17 12:31N 55°51' E 015°51'4 7.3
2017-May-17 12:00N 55°53' E 015°57'4 7.5
2017-May-17 11:30N 55°55' E 016°03'4 7.4
2017-May-17 11:01N 55°57' E 016°08'4 7.4
2017-May-17 10:30N 55°59' E 016°14'4 7.4
2017-May-17 10:00N 56°01' E 016°20'4 7.6
2017-May-17 09:30N 56°03' E 016°26'4 7.6
2017-May-17 09:00N 56°05' E 016°31'4 7.5
2017-May-17 08:29N 56°07' E 016°37'4 7.4
2017-May-17 08:00N 56°09' E 016°42'4 7.5
2017-May-17 07:30N 56°11' E 016°48'4 7.5
2017-May-17 06:57N 56°13' E 016°54'3 7.5
2017-May-17 06:30N 56°15' E 016°59'4 7.5
2017-May-17 06:00N 56°18' E 017°05'4 8.1
2017-May-17 05:31N 56°20' E 017°10'4 8.2
2017-May-17 05:01N 56°22' E 017°16'4 8.3
2017-May-17 04:31N 56°25' E 017°22'4 8.3
2017-May-17 04:01N 56°27' E 017°29'4 8.3
2017-May-17 03:29N 56°30' E 017°35'4 8.3
2017-May-17 03:00N 56°32' E 017°41'4 8.4
2017-May-17 02:30N 56°34' E 017°47'4 8.4
2017-May-17 02:00N 56°37' E 017°53'4 8.3
2017-May-17 01:30N 56°39' E 017°59'4 8.5
2017-May-17 00:59N 56°42' E 018°06'4 8.4
2017-May-17 00:31N 56°44' E 018°12'6 8.4
2017-May-16 23:44N 56°48' E 018°21'3 8.5
2017-May-16 23:21N 56°50' E 018°26'5 8.5
2017-May-16 22:48N 56°52' E 018°34'2 8.5
2017-May-16 22:30N 56°53' E 018°38'4 8.5
2017-May-16 22:00N 56°55' E 018°45'4 8.5
2017-May-16 21:30N 56°57' E 018°52'4 8.6
2017-May-16 20:59N 56°59' E 018°59'12 8.5
2017-May-16 19:34N 57°05' E 019°19'1 8.3
2017-May-16 19:30N 57°05' E 019°20'4 8.4
2017-May-16 19:01N 57°07' E 019°27'4 8.5
2017-May-16 18:30N 57°09' E 019°34'4 8.7
2017-May-16 18:00N 57°11' E 019°41'5 9.6
2017-May-16 17:29N 57°13' E 019°49'  
Track history (hours):
 
Tides and Currents Weather Stations Pressure Air Temp Water Temp Dewpoint Dewpoint Depression Visibility Wind Speed Wind Dir Waves Ship Positions

Bettina K

Last reported at 2017-May-24 20:46 UTC. Time now 2017-May-24 23:40 UTC.
Position N 53°38' W 000°08'.

Length 82 m; draft 3.2 m.

Type: Cargo ship. MMSI: 244730469.

Date/timePositionNaut miles runAvg speedWind from/ knotsBaromVisibWave heightAir tempDewpointWater temp
2017-May-24 20:46N 53°38' W 000°08'312.0
2017-May-24 20:30N 53°40' W 000°12'611.3
2017-May-24 20:00N 53°43' W 000°19'5 0.1
2017-May-23 02:36N 53°42' W 000°27'110.8
2017-May-23 02:30N 53°42' W 000°25'5 9.6
2017-May-23 02:01N 53°44' W 000°17'4 7.9
2017-May-23 01:30N 53°41' W 000°13'5 9.1
2017-May-23 01:00N 53°38' W 000°07'510.5
2017-May-23 00:30N 53°35' E 000°01'  
2017-May-19 09:55N 57°25' E 009°13'3 7.5
2017-May-19 09:30N 57°27' E 009°18'8 7.4
2017-May-19 08:28N 57°31' E 009°30'6 7.2
2017-May-19 07:41N 57°34' E 009°39'2 6.9
2017-May-19 07:25N 57°35' E 009°42'3 6.8
2017-May-19 07:00N 57°37' E 009°46'4 6.8
2017-May-19 06:27N 57°39' E 009°52'3 6.5
2017-May-19 06:00N 57°40' E 009°57'3 6.6
2017-May-19 05:30N 57°41' E 010°03'3 6.5
2017-May-19 04:59N 57°43' E 010°08'5 6.4
2017-May-19 04:11N 57°45' E 010°16'2 6.5
2017-May-19 03:50N 57°46' E 010°20'2 6.5
2017-May-19 03:30N 57°47' E 010°24'3 6.7
2017-May-19 03:00N 57°49' E 010°30'4 6.6
2017-May-19 02:26N 57°48' E 010°37'3 6.7
2017-May-19 01:57N 57°49' E 010°43'3 6.3
2017-May-19 01:29N 57°48' E 010°48'3 6.4
2017-May-19 01:00N 57°47' E 010°53'3 7.1
2017-May-19 00:31N 57°45' E 010°58'4 7.4
2017-May-18 23:58N 57°42' E 011°04'4 7.2
2017-May-18 23:29N 57°40' E 011°09'4 7.9
2017-May-18 23:00N 57°36' E 011°11'4 7.8
2017-May-18 22:30N 57°33' E 011°16'4 7.8
2017-May-18 22:00N 57°31' E 011°21'4 7.7
2017-May-18 21:30N 57°28' E 011°26'4 7.6
2017-May-18 21:00N 57°24' E 011°29'4 7.8
2017-May-18 20:30N 57°21' E 011°31'4 8.4
2017-May-18 19:59N 57°17' E 011°34'510.2
2017-May-18 19:29N 57°12' E 011°38'510.3
2017-May-18 19:00N 57°07' E 011°41'5 9.5
2017-May-18 18:30N 57°03' E 011°44'53 7.9
2017-May-18 11:43N 56°13' E 012°19'2 8.2
2017-May-18 11:29N 56°12' E 012°22'4 8.6
2017-May-18 11:00N 56°10' E 012°28'4 9.0
2017-May-18 10:31N 56°07' E 012°34'5 9.6
2017-May-18 10:00N 56°03' E 012°40'5 9.4
2017-May-18 09:30N 55°59' E 012°42'5 9.2
2017-May-18 09:01N 55°54' E 012°45'5 9.3
2017-May-18 08:31N 55°50' E 012°44'5 9.5
2017-May-18 08:01N 55°45' E 012°42'5 9.4
2017-May-18 07:31N 55°40' E 012°41'5 9.9
2017-May-18 07:00N 55°35' E 012°42'5 9.2
2017-May-18 06:30N 55°31' E 012°43'4 8.6
2017-May-18 06:01N 55°27' E 012°42'4 7.2
2017-May-18 05:30N 55°23' E 012°42'4 7.2
2017-May-18 05:00N 55°19' E 012°41'3 6.6
2017-May-18 04:30N 55°17' E 012°46'3 7.2
2017-May-18 04:01N 55°16' E 012°52'4 7.2
2017-May-18 03:30N 55°15' E 012°58'4 7.1
2017-May-18 03:00N 55°15' E 013°04'3 6.9
2017-May-18 02:30N 55°15' E 013°10'4 7.0
2017-May-18 02:00N 55°15' E 013°17'3 7.0
2017-May-18 01:31N 55°15' E 013°23'4 7.0
2017-May-18 01:01N 55°15' E 013°29'4 7.0
2017-May-18 00:30N 55°15' E 013°35'4 7.1
2017-May-18 00:00N 55°14' E 013°41'4 7.3
2017-May-17 23:30N 55°14' E 013°48'4 7.1
2017-May-17 23:00N 55°14' E 013°54'4 7.1
2017-May-17 22:30N 55°14' E 014°00'4 7.1
2017-May-17 22:00N 55°14' E 014°06'4 7.7
2017-May-17 21:30N 55°14' E 014°13'3 6.7
2017-May-17 21:00N 55°15' E 014°18'4 6.9
2017-May-17 20:29N 55°18' E 014°23'3 7.1
2017-May-17 20:00N 55°21' E 014°27'4 7.7
2017-May-17 19:30N 55°23' E 014°31'4 8.2
2017-May-17 19:00N 55°26' E 014°36'4 7.9
2017-May-17 18:29N 55°29' E 014°42'4 7.7
2017-May-17 18:00N 55°30' E 014°48'4 7.5
2017-May-17 17:30N 55°32' E 014°54'4 7.5
2017-May-17 16:58N 55°34' E 015°00'3 7.4
2017-May-17 16:31N 55°36' E 015°05'4 7.5
2017-May-17 16:00N 55°38' E 015°11'4 7.7
2017-May-17 15:31N 55°40' E 015°17'4 7.6
2017-May-17 15:00N 55°42' E 015°22'8 7.7
2017-May-17 14:01N 55°46' E 015°34'4 7.6
2017-May-17 13:31N 55°48' E 015°40'4 7.4
2017-May-17 13:00N 55°50' E 015°46'4 7.2
2017-May-17 12:31N 55°51' E 015°51'4 7.3
2017-May-17 12:00N 55°53' E 015°57'4 7.5
2017-May-17 11:30N 55°55' E 016°03'4 7.4
2017-May-17 11:01N 55°57' E 016°08'4 7.4
2017-May-17 10:30N 55°59' E 016°14'4 7.4
2017-May-17 10:00N 56°01' E 016°20'4 7.6
2017-May-17 09:30N 56°03' E 016°26'4 7.6
2017-May-17 09:00N 56°05' E 016°31'4 7.5
2017-May-17 08:29N 56°07' E 016°37'4 7.4
2017-May-17 08:00N 56°09' E 016°42'4 7.5
2017-May-17 07:30N 56°11' E 016°48'4 7.5
2017-May-17 06:57N 56°13' E 016°54'3 7.5
2017-May-17 06:30N 56°15' E 016°59'4 7.5
2017-May-17 06:00N 56°18' E 017°05'4 8.1
2017-May-17 05:31N 56°20' E 017°10'4 8.2
2017-May-17 05:01N 56°22' E 017°16'4 8.3
2017-May-17 04:31N 56°25' E 017°22'4 8.3
2017-May-17 04:01N 56°27' E 017°29'4 8.3
2017-May-17 03:29N 56°30' E 017°35'4 8.3
2017-May-17 03:00N 56°32' E 017°41'4 8.4
2017-May-17 02:30N 56°34' E 017°47'4 8.4
2017-May-17 02:00N 56°37' E 017°53'4 8.3
2017-May-17 01:30N 56°39' E 017°59'4 8.5
2017-May-17 00:59N 56°42' E 018°06'4 8.4
2017-May-17 00:31N 56°44' E 018°12'6 8.4
2017-May-16 23:44N 56°48' E 018°21'3 8.5
2017-May-16 23:21N 56°50' E 018°26'5 8.5
2017-May-16 22:48N 56°52' E 018°34'2 8.5
2017-May-16 22:30N 56°53' E 018°38'4 8.5
2017-May-16 22:00N 56°55' E 018°45'4 8.5
2017-May-16 21:30N 56°57' E 018°52'4 8.6
2017-May-16 20:59N 56°59' E 018°59'12 8.5
2017-May-16 19:34N 57°05' E 019°19'1 8.3
2017-May-16 19:30N 57°05' E 019°20'4 8.4
2017-May-16 19:01N 57°07' E 019°27'4 8.5
2017-May-16 18:30N 57°09' E 019°34'4 8.7
2017-May-16 18:00N 57°11' E 019°41'5 9.6
2017-May-16 17:29N 57°13' E 019°49'  

Dump ship's entire track history